Washington, DC (20088)

10:44 PM EDT on October 01, 2014 (GMT -0400)
Rock Creek Forest | Change Station
CLOSE
Current Station
Personal Weather Station
Location: Chevy Chase, MD
Elevation: 71 m
Nearby Weather Stations
Active Advisory: Coastal Flood Advisory

Elev 71 m 38.99 °N, 77.05 °W | Updated 44 seconds ago

Clear
Clear
15.2 °C
Feels Like 15.2 °C
N
0.0
Wind Variable Wind from SE
Gusts 0.0 km/h

Today
High -- | Low -- °C
--% Chance of Precip.
Yesterday
High -- | Low -- °C
Precip. -- mm
7:04 AM 6:50 PM
First Quarter, 53% visible
Pressure 1014 hPa
Visibility 16.1 kilometers
Clouds Scattered Clouds 1524 m
Scattered Clouds 2286 m
Overcast 2895 m
Dew Point 15 °C
Humidity 99%
Rainfall 2 mm
Snow Depth Not available.
UV 0 out of 12
Pollen 2.90 out of 12
Air Quality Not available.
Flu Activity Not available.
METAR KCGS 010325Z AUTO 00000KT 10SM SCT050 SCT075 OVC095 18/18 A2994 RMK AO1

More Conditions Fewer Conditions

Pressure 1014 hPa
Visibility 16.1 kilometers
Clouds Scattered Clouds 1524 m
Scattered Clouds 2286 m
Overcast 2895 m
Dew Point 15 °C
Humidity 99%
Rainfall 2 mm
Snow Depth Not available.
UV 0 out of 12
Pollen 2.90 out of 12
Air Quality Not available.
Flu Activity Not available.
METAR KCGS 010325Z AUTO 00000KT 10SM SCT050 SCT075 OVC095 18/18 A2994 RMK AO1

More Conditions Fewer Conditions

10-Day Weather Forecast

Almanac

Astronomy

Oct. 01, 2014 Rise Set
Actual Time 7:04 AM EDT 6:50 PM EDT
Civil Twilight 6:37 AM EDT 7:17 PM EDT
Nautical Twilight 6:06 AM EDT 7:48 PM EDT
Astronomical Twilight 5:35 AM EDT 8:19 PM EDT
Moon 2:01 PM EDT (10/1) No Moon Set
Length of Visible Light 12h 39m
Length of Day
11h 46m
Tomorrow will be 2m 31s shorter.
First Quarter, 53% of the Moon is Illuminated
Today
First Quarter
Oct 8
Full
Oct 15
Last Quarter
Oct 23
New
Oct 30
First Quarter

Today's Extremes

State Highs State Lows

Community

WunderPhotos

Upload Photos

1,758,154 photos uploaded!

WunderBlogs® & News

Nearby

Snow Depth

Station Depth Elevation
No new snow has been reported.

Earthquake Activity

City Distance Mag. Time & Date
No recent earthquake activity has been reported nearby.
Minimum magnitude displayed is 2.5.

Coastal Water Temperatures

Place Temperature
Washington, DC 21.7 °C
Baltimore, MD 23.3 °C
Solomons Island, MD 22.8 °C

Nearby Weather Stations